sensor_id;sensor_type;location;lat;lon;timestamp;temperature;humidity
19646;DHT22;9971;52.446;13.452;2023-04-26T00:00:28;8.20;99.90
19646;DHT22;9971;52.446;13.452;2023-04-26T00:05:31;8.10;99.90
19646;DHT22;9971;52.446;13.452;2023-04-26T00:10:34;8.10;99.90
19646;DHT22;9971;52.446;13.452;2023-04-26T00:15:36;8.10;99.90
19646;DHT22;9971;52.446;13.452;2023-04-26T00:20:39;8.10;99.90
19646;DHT22;9971;52.446;13.452;2023-04-26T00:25:42;8.10;99.90
19646;DHT22;9971;52.446;13.452;2023-04-26T00:30:44;8.00;99.90
19646;DHT22;9971;52.446;13.452;2023-04-26T00:35:47;8.00;99.90
19646;DHT22;9971;52.446;13.452;2023-04-26T00:40:49;7.90;99.90
19646;DHT22;9971;52.446;13.452;2023-04-26T00:45:51;7.90;99.90
19646;DHT22;9971;52.446;13.452;2023-04-26T00:50:54;7.90;99.90
19646;DHT22;9971;52.446;13.452;2023-04-26T00:55:57;7.80;99.90
19646;DHT22;9971;52.446;13.452;2023-04-26T01:00:58;7.80;99.90
19646;DHT22;9971;52.446;13.452;2023-04-26T01:06:00;7.80;99.90
19646;DHT22;9971;52.446;13.452;2023-04-26T01:11:03;7.70;99.90
19646;DHT22;9971;52.446;13.452;2023-04-26T01:16:06;7.70;99.90
19646;DHT22;9971;52.446;13.452;2023-04-26T01:21:08;7.60;99.90
19646;DHT22;9971;52.446;13.452;2023-04-26T01:26:10;7.60;99.90
19646;DHT22;9971;52.446;13.452;2023-04-26T01:31:12;7.60;99.90
19646;DHT22;9971;52.446;13.452;2023-04-26T01:36:15;7.50;99.90
19646;DHT22;9971;52.446;13.452;2023-04-26T01:41:17;7.50;99.90
19646;DHT22;9971;52.446;13.452;2023-04-26T01:46:20;7.50;99.90
19646;DHT22;9971;52.446;13.452;2023-04-26T01:51:22;7.40;99.90
19646;DHT22;9971;52.446;13.452;2023-04-26T01:56:24;7.40;99.90
19646;DHT22;9971;52.446;13.452;2023-04-26T02:01:26;7.40;99.90
19646;DHT22;9971;52.446;13.452;2023-04-26T02:06:29;7.40;99.90
19646;DHT22;9971;52.446;13.452;2023-04-26T02:11:31;7.40;99.90
19646;DHT22;9971;52.446;13.452;2023-04-26T02:16:33;7.30;99.90
19646;DHT22;9971;52.446;13.452;2023-04-26T02:26:50;7.30;99.90
19646;DHT22;9971;52.446;13.452;2023-04-26T02:31:52;7.20;99.90
19646;DHT22;9971;52.446;13.452;2023-04-26T02:36:54;7.20;99.90
19646;DHT22;9971;52.446;13.452;2023-04-26T02:41:58;7.20;99.90
19646;DHT22;9971;52.446;13.452;2023-04-26T02:47:00;7.20;99.90
19646;DHT22;9971;52.446;13.452;2023-04-26T02:52:02;7.20;99.90
19646;DHT22;9971;52.446;13.452;2023-04-26T02:57:05;7.10;99.90
19646;DHT22;9971;52.446;13.452;2023-04-26T03:02:07;7.10;99.90
19646;DHT22;9971;52.446;13.452;2023-04-26T03:07:10;7.00;99.90
19646;DHT22;9971;52.446;13.452;2023-04-26T03:12:12;7.00;99.90
19646;DHT22;9971;52.446;13.452;2023-04-26T03:17:15;7.00;99.90
19646;DHT22;9971;52.446;13.452;2023-04-26T03:22:17;6.90;99.90
19646;DHT22;9971;52.446;13.452;2023-04-26T03:27:20;6.90;99.90
19646;DHT22;9971;52.446;13.452;2023-04-26T03:32:22;6.90;99.90
19646;DHT22;9971;52.446;13.452;2023-04-26T03:37:25;6.80;99.90
19646;DHT22;9971;52.446;13.452;2023-04-26T03:42:27;6.80;99.90
19646;DHT22;9971;52.446;13.452;2023-04-26T03:47:30;6.80;99.90
19646;DHT22;9971;52.446;13.452;2023-04-26T03:52:32;6.80;99.90
19646;DHT22;9971;52.446;13.452;2023-04-26T03:57:34;6.80;99.90
19646;DHT22;9971;52.446;13.452;2023-04-26T04:02:37;6.80;99.90
19646;DHT22;9971;52.446;13.452;2023-04-26T04:07:39;6.70;99.90
19646;DHT22;9971;52.446;13.452;2023-04-26T04:12:42;6.80;99.90
19646;DHT22;9971;52.446;13.452;2023-04-26T04:17:44;6.80;99.90
19646;DHT22;9971;52.446;13.452;2023-04-26T04:22:46;6.80;99.90
19646;DHT22;9971;52.446;13.452;2023-04-26T04:27:48;6.70;99.90
19646;DHT22;9971;52.446;13.452;2023-04-26T04:32:51;6.80;99.90
19646;DHT22;9971;52.446;13.452;2023-04-26T04:37:53;6.80;99.90
19646;DHT22;9971;52.446;13.452;2023-04-26T04:42:55;6.80;99.90
19646;DHT22;9971;52.446;13.452;2023-04-26T04:47:57;6.90;99.90
19646;DHT22;9971;52.446;13.452;2023-04-26T04:53:00;6.90;99.90
19646;DHT22;9971;52.446;13.452;2023-04-26T04:58:02;7.00;99.90
19646;DHT22;9971;52.446;13.452;2023-04-26T05:03:04;7.00;99.90
19646;DHT22;9971;52.446;13.452;2023-04-26T05:08:06;7.10;99.90
19646;DHT22;9971;52.446;13.452;2023-04-26T05:13:08;7.10;99.90
19646;DHT22;9971;52.446;13.452;2023-04-26T05:18:10;7.20;99.90
19646;DHT22;9971;52.446;13.452;2023-04-26T05:23:13;7.30;99.90
19646;DHT22;9971;52.446;13.452;2023-04-26T05:28:15;7.30;99.90
19646;DHT22;9971;52.446;13.452;2023-04-26T05:33:23;7.40;99.90
19646;DHT22;9971;52.446;13.452;2023-04-26T05:38:26;7.50;99.90
19646;DHT22;9971;52.446;13.452;2023-04-26T05:43:28;7.60;99.90
19646;DHT22;9971;52.446;13.452;2023-04-26T05:48:30;7.70;99.90
19646;DHT22;9971;52.446;13.452;2023-04-26T05:53:33;7.80;99.90
19646;DHT22;9971;52.446;13.452;2023-04-26T05:58:35;7.90;99.90
19646;DHT22;9971;52.446;13.452;2023-04-26T06:03:37;8.00;99.90
19646;DHT22;9971;52.446;13.452;2023-04-26T06:08:41;8.10;99.90
19646;DHT22;9971;52.446;13.452;2023-04-26T06:13:42;8.20;99.90
19646;DHT22;9971;52.446;13.452;2023-04-26T06:18:44;8.30;99.90
19646;DHT22;9971;52.446;13.452;2023-04-26T06:23:47;8.40;99.90
19646;DHT22;9971;52.446;13.452;2023-04-26T06:28:50;8.50;99.90
19646;DHT22;9971;52.446;13.452;2023-04-26T06:33:53;8.60;99.90
19646;DHT22;9971;52.446;13.452;2023-04-26T06:38:55;8.70;99.90
19646;DHT22;9971;52.446;13.452;2023-04-26T06:43:57;8.80;99.90
19646;DHT22;9971;52.446;13.452;2023-04-26T06:49:00;8.80;99.90
19646;DHT22;9971;52.446;13.452;2023-04-26T06:54:02;8.90;99.90
19646;DHT22;9971;52.446;13.452;2023-04-26T06:59:05;9.00;99.90
19646;DHT22;9971;52.446;13.452;2023-04-26T07:04:06;9.10;99.90
19646;DHT22;9971;52.446;13.452;2023-04-26T07:09:08;9.20;99.90
19646;DHT22;9971;52.446;13.452;2023-04-26T07:14:11;9.40;99.90
19646;DHT22;9971;52.446;13.452;2023-04-26T07:19:14;9.40;99.90
19646;DHT22;9971;52.446;13.452;2023-04-26T07:24:16;9.50;99.90
19646;DHT22;9971;52.446;13.452;2023-04-26T07:29:18;9.70;99.90
19646;DHT22;9971;52.446;13.452;2023-04-26T07:34:21;9.70;99.90
19646;DHT22;9971;52.446;13.452;2023-04-26T07:39:23;9.90;99.90
19646;DHT22;9971;52.446;13.452;2023-04-26T07:44:25;10.00;99.90
19646;DHT22;9971;52.446;13.452;2023-04-26T07:49:28;10.10;99.90
19646;DHT22;9971;52.446;13.452;2023-04-26T07:54:31;10.10;99.90
19646;DHT22;9971;52.446;13.452;2023-04-26T07:59:33;10.30;99.90
19646;DHT22;9971;52.446;13.452;2023-04-26T08:04:36;10.40;99.90
19646;DHT22;9971;52.446;13.452;2023-04-26T08:09:38;10.50;99.90
19646;DHT22;9971;52.446;13.452;2023-04-26T08:14:40;10.40;99.90
19646;DHT22;9971;52.446;13.452;2023-04-26T08:19:43;10.40;99.90
19646;DHT22;9971;52.446;13.452;2023-04-26T08:24:49;10.50;99.90
19646;DHT22;9971;52.446;13.452;2023-04-26T08:29:51;10.90;99.90
19646;DHT22;9971;52.446;13.452;2023-04-26T08:34:53;10.80;99.90
19646;DHT22;9971;52.446;13.452;2023-04-26T08:39:55;10.50;99.90
19646;DHT22;9971;52.446;13.452;2023-04-26T08:44:59;10.50;99.90
19646;DHT22;9971;52.446;13.452;2023-04-26T08:50:00;10.60;99.90
19646;DHT22;9971;52.446;13.452;2023-04-26T08:55:02;10.50;99.90
19646;DHT22;9971;52.446;13.452;2023-04-26T09:00:04;10.60;99.90
19646;DHT22;9971;52.446;13.452;2023-04-26T09:05:07;10.70;99.90
19646;DHT22;9971;52.446;13.452;2023-04-26T09:10:10;10.70;99.90
19646;DHT22;9971;52.446;13.452;2023-04-26T09:15:13;11.10;99.90
19646;DHT22;9971;52.446;13.452;2023-04-26T09:20:20;11.30;99.90
19646;DHT22;9971;52.446;13.452;2023-04-26T09:25:27;11.70;99.90
19646;DHT22;9971;52.446;13.452;2023-04-26T09:30:29;11.70;99.90
19646;DHT22;9971;52.446;13.452;2023-04-26T09:35:32;11.80;99.90
19646;DHT22;9971;52.446;13.452;2023-04-26T09:40:34;11.60;99.90
19646;DHT22;9971;52.446;13.452;2023-04-26T09:45:56;11.60;99.90
19646;DHT22;9971;52.446;13.452;2023-04-26T09:51:13;11.80;99.90
19646;DHT22;9971;52.446;13.452;2023-04-26T09:56:16;11.80;99.90
19646;DHT22;9971;52.446;13.452;2023-04-26T10:01:20;11.60;99.90
19646;DHT22;9971;52.446;13.452;2023-04-26T10:06:22;11.60;99.90
19646;DHT22;9971;52.446;13.452;2023-04-26T10:11:24;12.00;99.90
19646;DHT22;9971;52.446;13.452;2023-04-26T10:16:26;12.40;99.90
19646;DHT22;9971;52.446;13.452;2023-04-26T10:21:29;12.20;99.90
19646;DHT22;9971;52.446;13.452;2023-04-26T10:37:09;12.50;96.30
19646;DHT22;9971;52.446;13.452;2023-04-26T10:42:22;12.70;94.40
19646;DHT22;9971;52.446;13.452;2023-04-26T10:47:30;12.50;95.90
19646;DHT22;9971;52.446;13.452;2023-04-26T10:52:31;12.20;96.80
19646;DHT22;9971;52.446;13.452;2023-04-26T10:57:49;12.10;97.00
19646;DHT22;9971;52.446;13.452;2023-04-26T11:03:02;12.00;96.10
19646;DHT22;9971;52.446;13.452;2023-04-26T11:08:23;12.00;96.80
19646;DHT22;9971;52.446;13.452;2023-04-26T11:13:23;12.00;97.10
19646;DHT22;9971;52.446;13.452;2023-04-26T11:18:25;12.20;97.10
19646;DHT22;9971;52.446;13.452;2023-04-26T11:23:28;12.20;96.30
19646;DHT22;9971;52.446;13.452;2023-04-26T11:28:30;12.20;97.30
19646;DHT22;9971;52.446;13.452;2023-04-26T11:33:32;12.10;96.80
19646;DHT22;9971;52.446;13.452;2023-04-26T11:38:34;12.10;96.80
19646;DHT22;9971;52.446;13.452;2023-04-26T11:43:37;12.30;97.30
19646;DHT22;9971;52.446;13.452;2023-04-26T11:48:39;12.60;93.90
19646;DHT22;9971;52.446;13.452;2023-04-26T11:53:41;12.70;93.70
19646;DHT22;9971;52.446;13.452;2023-04-26T11:58:47;12.60;94.10
19646;DHT22;9971;52.446;13.452;2023-04-26T12:03:49;12.40;96.50
19646;DHT22;9971;52.446;13.452;2023-04-26T12:08:51;12.10;99.40
19646;DHT22;9971;52.446;13.452;2023-04-26T12:13:56;11.80;99.90
19646;DHT22;9971;52.446;13.452;2023-04-26T12:18:55;11.80;98.30
19646;DHT22;9971;52.446;13.452;2023-04-26T12:23:58;12.10;96.50
19646;DHT22;9971;52.446;13.452;2023-04-26T12:29:00;12.40;96.20
19646;DHT22;9971;52.446;13.452;2023-04-26T12:34:03;12.70;95.50
19646;DHT22;9971;52.446;13.452;2023-04-26T12:39:05;12.90;94.10
19646;DHT22;9971;52.446;13.452;2023-04-26T12:44:08;12.70;93.90
19646;DHT22;9971;52.446;13.452;2023-04-26T12:49:10;12.40;93.90
19646;DHT22;9971;52.446;13.452;2023-04-26T12:54:12;12.30;94.10
19646;DHT22;9971;52.446;13.452;2023-04-26T12:59:15;12.30;94.20
19646;DHT22;9971;52.446;13.452;2023-04-26T13:04:17;12.50;93.30
19646;DHT22;9971;52.446;13.452;2023-04-26T13:09:20;12.70;92.20
19646;DHT22;9971;52.446;13.452;2023-04-26T13:14:22;13.20;90.00
19646;DHT22;9971;52.446;13.452;2023-04-26T13:19:24;13.70;89.80
19646;DHT22;9971;52.446;13.452;2023-04-26T13:24:27;14.10;85.80
19646;DHT22;9971;52.446;13.452;2023-04-26T13:29:29;14.50;82.50
19646;DHT22;9971;52.446;13.452;2023-04-26T13:34:32;14.70;83.40
19646;DHT22;9971;52.446;13.452;2023-04-26T13:39:34;15.00;82.80
19646;DHT22;9971;52.446;13.452;2023-04-26T13:44:37;15.40;82.10
19646;DHT22;9971;52.446;13.452;2023-04-26T13:49:40;15.10;80.20
19646;DHT22;9971;52.446;13.452;2023-04-26T13:54:42;14.60;81.30
19646;DHT22;9971;52.446;13.452;2023-04-26T13:59:44;14.20;82.80
19646;DHT22;9971;52.446;13.452;2023-04-26T14:04:47;13.70;90.00
19646;DHT22;9971;52.446;13.452;2023-04-26T14:09:50;13.20;90.50
19646;DHT22;9971;52.446;13.452;2023-04-26T14:14:52;13.10;92.00
19646;DHT22;9971;52.446;13.452;2023-04-26T14:19:54;13.50;91.30
19646;DHT22;9971;52.446;13.452;2023-04-26T14:24:57;13.40;86.90
19646;DHT22;9971;52.446;13.452;2023-04-26T14:30:02;13.20;88.20
19646;DHT22;9971;52.446;13.452;2023-04-26T14:35:05;13.10;89.40
19646;DHT22;9971;52.446;13.452;2023-04-26T14:40:09;13.30;89.80
19646;DHT22;9971;52.446;13.452;2023-04-26T14:45:11;13.70;88.80
19646;DHT22;9971;52.446;13.452;2023-04-26T14:50:13;14.20;87.10
19646;DHT22;9971;52.446;13.452;2023-04-26T14:55:16;14.80;84.60
19646;DHT22;9971;52.446;13.452;2023-04-26T15:00:19;14.80;83.60
19646;DHT22;9971;52.446;13.452;2023-04-26T15:05:22;14.40;83.60
19646;DHT22;9971;52.446;13.452;2023-04-26T15:10:25;14.10;83.90
19646;DHT22;9971;52.446;13.452;2023-04-26T15:15:30;13.70;84.90
19646;DHT22;9971;52.446;13.452;2023-04-26T15:20:37;13.80;86.20
19646;DHT22;9971;52.446;13.452;2023-04-26T15:25:36;14.30;84.60
19646;DHT22;9971;52.446;13.452;2023-04-26T15:30:39;14.70;83.60
19646;DHT22;9971;52.446;13.452;2023-04-26T15:35:42;14.80;82.20
19646;DHT22;9971;52.446;13.452;2023-04-26T15:40:45;14.70;81.70
19646;DHT22;9971;52.446;13.452;2023-04-26T15:45:47;14.70;83.30
19646;DHT22;9971;52.446;13.452;2023-04-26T15:50:52;15.00;81.00
19646;DHT22;9971;52.446;13.452;2023-04-26T15:55:55;14.70;80.40
19646;DHT22;9971;52.446;13.452;2023-04-26T16:00:58;14.40;80.00
19646;DHT22;9971;52.446;13.452;2023-04-26T16:06:00;14.10;80.30
19646;DHT22;9971;52.446;13.452;2023-04-26T16:11:02;13.90;80.90
19646;DHT22;9971;52.446;13.452;2023-04-26T16:16:05;13.70;81.10
19646;DHT22;9971;52.446;13.452;2023-04-26T16:21:08;13.50;82.10
19646;DHT22;9971;52.446;13.452;2023-04-26T16:26:11;13.30;81.70
19646;DHT22;9971;52.446;13.452;2023-04-26T16:31:15;13.10;82.70
19646;DHT22;9971;52.446;13.452;2023-04-26T16:36:18;12.90;83.80
19646;DHT22;9971;52.446;13.452;2023-04-26T16:41:21;12.80;85.10
19646;DHT22;9971;52.446;13.452;2023-04-26T16:46:24;12.80;86.10
19646;DHT22;9971;52.446;13.452;2023-04-26T16:51:26;12.70;88.10
19646;DHT22;9971;52.446;13.452;2023-04-26T16:56:30;12.90;88.00
19646;DHT22;9971;52.446;13.452;2023-04-26T17:01:33;13.10;87.30
19646;DHT22;9971;52.446;13.452;2023-04-26T17:06:36;13.10;85.50
19646;DHT22;9971;52.446;13.452;2023-04-26T17:11:39;13.00;87.40
19646;DHT22;9971;52.446;13.452;2023-04-26T17:16:41;13.20;87.40
19646;DHT22;9971;52.446;13.452;2023-04-26T17:21:44;13.30;87.70
19646;DHT22;9971;52.446;13.452;2023-04-26T17:26:47;13.40;85.90
19646;DHT22;9971;52.446;13.452;2023-04-26T17:31:49;13.40;84.60
19646;DHT22;9971;52.446;13.452;2023-04-26T17:36:52;13.20;86.30
19646;DHT22;9971;52.446;13.452;2023-04-26T17:41:55;13.10;86.00
19646;DHT22;9971;52.446;13.452;2023-04-26T17:46:57;12.90;85.80
19646;DHT22;9971;52.446;13.452;2023-04-26T17:52:00;12.70;87.70
19646;DHT22;9971;52.446;13.452;2023-04-26T17:57:03;12.60;88.50
19646;DHT22;9971;52.446;13.452;2023-04-26T18:02:06;12.40;89.90
19646;DHT22;9971;52.446;13.452;2023-04-26T18:07:09;12.20;90.30
19646;DHT22;9971;52.446;13.452;2023-04-26T18:12:11;12.00;90.60
19646;DHT22;9971;52.446;13.452;2023-04-26T18:17:14;11.90;91.20
19646;DHT22;9971;52.446;13.452;2023-04-26T18:22:19;11.80;91.50
19646;DHT22;9971;52.446;13.452;2023-04-26T18:27:22;11.80;91.90
19646;DHT22;9971;52.446;13.452;2023-04-26T18:32:25;11.70;92.40
19646;DHT22;9971;52.446;13.452;2023-04-26T18:37:27;11.50;92.80
19646;DHT22;9971;52.446;13.452;2023-04-26T18:42:30;11.40;93.10
19646;DHT22;9971;52.446;13.452;2023-04-26T18:47:34;11.30;93.50
19646;DHT22;9971;52.446;13.452;2023-04-26T18:52:36;11.20;93.80
19646;DHT22;9971;52.446;13.452;2023-04-26T18:57:42;11.00;94.20
19646;DHT22;9971;52.446;13.452;2023-04-26T19:02:45;10.90;94.90
19646;DHT22;9971;52.446;13.452;2023-04-26T19:07:50;10.80;95.30
19646;DHT22;9971;52.446;13.452;2023-04-26T19:12:52;10.80;96.00
19646;DHT22;9971;52.446;13.452;2023-04-26T19:17:58;10.80;96.60
19646;DHT22;9971;52.446;13.452;2023-04-26T19:23:01;10.70;97.00
19646;DHT22;9971;52.446;13.452;2023-04-26T19:28:04;10.70;97.50
19646;DHT22;9971;52.446;13.452;2023-04-26T19:33:07;10.60;98.10
19646;DHT22;9971;52.446;13.452;2023-04-26T19:38:11;10.50;98.50
19646;DHT22;9971;52.446;13.452;2023-04-26T19:43:15;10.40;99.00
19646;DHT22;9971;52.446;13.452;2023-04-26T19:48:18;10.40;99.80
19646;DHT22;9971;52.446;13.452;2023-04-26T19:53:20;10.30;99.90
19646;DHT22;9971;52.446;13.452;2023-04-26T19:58:23;10.20;99.90
19646;DHT22;9971;52.446;13.452;2023-04-26T20:03:24;10.20;99.90
19646;DHT22;9971;52.446;13.452;2023-04-26T20:08:28;10.10;99.90
19646;DHT22;9971;52.446;13.452;2023-04-26T20:13:32;10.10;99.90
19646;DHT22;9971;52.446;13.452;2023-04-26T20:18:36;10.00;99.90
19646;DHT22;9971;52.446;13.452;2023-04-26T20:23:38;10.00;99.90
19646;DHT22;9971;52.446;13.452;2023-04-26T20:28:41;10.00;99.90
19646;DHT22;9971;52.446;13.452;2023-04-26T20:33:44;9.90;99.90
19646;DHT22;9971;52.446;13.452;2023-04-26T20:38:47;9.90;99.90
19646;DHT22;9971;52.446;13.452;2023-04-26T20:43:50;9.90;99.90
19646;DHT22;9971;52.446;13.452;2023-04-26T20:48:52;9.90;99.90
19646;DHT22;9971;52.446;13.452;2023-04-26T20:53:55;9.80;99.90
19646;DHT22;9971;52.446;13.452;2023-04-26T20:58:57;9.80;99.90
19646;DHT22;9971;52.446;13.452;2023-04-26T21:04:00;9.80;99.90
19646;DHT22;9971;52.446;13.452;2023-04-26T21:09:03;9.70;99.90
19646;DHT22;9971;52.446;13.452;2023-04-26T21:14:05;9.70;99.90
19646;DHT22;9971;52.446;13.452;2023-04-26T21:19:07;9.70;99.90
19646;DHT22;9971;52.446;13.452;2023-04-26T21:24:10;9.70;99.90
19646;DHT22;9971;52.446;13.452;2023-04-26T21:29:12;9.70;99.90
19646;DHT22;9971;52.446;13.452;2023-04-26T21:34:15;9.70;99.90
19646;DHT22;9971;52.446;13.452;2023-04-26T21:39:18;9.60;99.90
19646;DHT22;9971;52.446;13.452;2023-04-26T21:44:20;9.50;99.90
19646;DHT22;9971;52.446;13.452;2023-04-26T21:49:23;9.50;99.90
19646;DHT22;9971;52.446;13.452;2023-04-26T21:54:25;9.40;99.90
19646;DHT22;9971;52.446;13.452;2023-04-26T21:59:27;9.50;99.90
19646;DHT22;9971;52.446;13.452;2023-04-26T22:04:30;9.50;99.90
19646;DHT22;9971;52.446;13.452;2023-04-26T22:09:32;9.50;99.90
19646;DHT22;9971;52.446;13.452;2023-04-26T22:14:35;9.60;99.90
19646;DHT22;9971;52.446;13.452;2023-04-26T22:19:37;9.60;99.90
19646;DHT22;9971;52.446;13.452;2023-04-26T22:24:39;9.70;99.90
19646;DHT22;9971;52.446;13.452;2023-04-26T22:29:41;9.70;99.90
19646;DHT22;9971;52.446;13.452;2023-04-26T22:34:44;9.70;99.90
19646;DHT22;9971;52.446;13.452;2023-04-26T22:39:46;9.80;99.90
19646;DHT22;9971;52.446;13.452;2023-04-26T22:44:49;9.80;99.90
19646;DHT22;9971;52.446;13.452;2023-04-26T22:49:51;9.80;99.90
19646;DHT22;9971;52.446;13.452;2023-04-26T22:54:53;9.80;99.90
19646;DHT22;9971;52.446;13.452;2023-04-26T22:59:56;9.90;99.90
19646;DHT22;9971;52.446;13.452;2023-04-26T23:04:58;9.90;99.90
19646;DHT22;9971;52.446;13.452;2023-04-26T23:10:01;9.90;99.90
19646;DHT22;9971;52.446;13.452;2023-04-26T23:15:03;9.90;99.90
19646;DHT22;9971;52.446;13.452;2023-04-26T23:20:07;9.90;99.90
19646;DHT22;9971;52.446;13.452;2023-04-26T23:25:12;9.90;99.90
19646;DHT22;9971;52.446;13.452;2023-04-26T23:30:15;9.90;99.90
19646;DHT22;9971;52.446;13.452;2023-04-26T23:35:17;9.80;99.90
19646;DHT22;9971;52.446;13.452;2023-04-26T23:40:20;9.80;99.90
19646;DHT22;9971;52.446;13.452;2023-04-26T23:45:23;9.80;99.90
19646;DHT22;9971;52.446;13.452;2023-04-26T23:50:25;9.80;99.90
19646;DHT22;9971;52.446;13.452;2023-04-26T23:55:28;9.90;99.90
